Rachele Brusco — WDC3067 — position and weather

sailwx.info

Track history (hours):
 
Tides and Currents Weather Stations Pressure Air Temp Water Temp Dewpoint Dewpoint Depression Visibility Wind Speed Wind Dir Waves Ship Positions

Rachele Brusco

Owner: Brusco Tug & Barge, Inc., Longview, WA. More information available from US FCC via Universal Licensing System and Coast Guard Vessel Documentation Center.

Last reported at 2017-Dec-13 00:25 UTC. Time now 2017-Dec-16 09:12 UTC.
Position N 46°56' W 124°01'.

Length 29 m; draft 4.5 m.

Type: Towing. MMSI: 367002210.

Date/timePositionNaut miles runAvg speedWind from/ knotsBaromVisibWave heightAir tempDewpointWater temp
2017-Dec-13 00:25N 46°56' W 124°01'5 0.3
2017-Dec-12 07:50N 46°55' W 124°08'1 0.1
2017-Dec-11 20:18N 46°55' W 124°06'1 2.3
2017-Dec-11 20:00N 46°55' W 124°07'1 0.1
2017-Dec-11 13:20N 46°55' W 124°06'0 1.2
2017-Dec-11 12:59N 46°55' W 124°06'0 0.1
2017-Dec-11 08:12N 46°55' W 124°06'0 0.0
2017-Dec-11 04:52N 46°55' W 124°06'2 3.7
2017-Dec-11 04:27N 46°55' W 124°08'1 0.2
2017-Dec-10 22:30N 46°55' W 124°06'1 0.2
2017-Dec-10 14:18N 46°55' W 124°04'1 3.6
2017-Dec-10 14:00N 46°55' W 124°06'0 0.7
2017-Dec-10 13:22N 46°55' W 124°06'3 1.0
2017-Dec-10 10:06N 46°56' W 124°02'0 3.5
2017-Dec-10 10:00N 46°56' W 124°02'1 0.6
2017-Dec-10 09:02N 46°55' W 124°03'1 3.1
2017-Dec-10 08:44N 46°55' W 124°04'1 3.4
2017-Dec-10 08:29N 46°55' W 124°05'1 3.0
2017-Dec-10 08:01N 46°55' W 124°07'4 0.6
2017-Dec-10 01:22N 46°56' W 124°02'3 5.9
2017-Dec-10 00:52N 46°55' W 124°06'1 3.7
2017-Dec-10 00:30N 46°55' W 124°08'2 0.2
2017-Dec-09 17:54N 46°55' W 124°05'1 3.3
2017-Dec-09 17:28N 46°55' W 124°08'5 2.3
2017-Dec-09 15:20N 46°56' W 124°01'0 0.1
2017-Dec-09 14:11N 46°56' W 124°00'4 1.1
2017-Dec-09 10:45N 46°55' W 124°06'1 5.9
2017-Dec-09 10:30N 46°55' W 124°08'0 0.3
2017-Dec-09 10:00N 46°55' W 124°08'1 2.9
2017-Dec-09 09:30N 46°55' W 124°06'0 0.1
2017-Dec-09 05:34N 46°55' W 124°05'0 3.9
2017-Dec-09 05:30N 46°55' W 124°06'2 3.0
2017-Dec-09 05:00N 46°55' W 124°08'2 0.3
2017-Dec-08 22:57N 46°55' W 124°06'0 1.0
2017-Dec-08 22:26N 46°55' W 124°06'1 0.1
2017-Dec-08 17:09N 46°55' W 124°05'1 5.1
2017-Dec-08 17:00N 46°55' W 124°06'1 0.1
2017-Dec-08 10:28N 46°55' W 124°05'1 1.6
2017-Dec-08 10:00N 46°55' W 124°07'4 1.0
2017-Dec-08 06:10N 46°56' W 124°01'2 5.9
2017-Dec-08 05:48N 46°55' W 124°04'2 5.3
2017-Dec-08 05:30N 46°55' W 124°06'1 0.1
2017-Dec-07 22:38N 46°55' W 124°06'1 6.7
2017-Dec-07 22:30N 46°55' W 124°07'1 0.2
2017-Dec-07 16:56N 46°55' W 124°05'1 1.6
2017-Dec-07 16:30N 46°55' W 124°06'1 0.0
2017-Dec-07 05:00N 46°55' W 124°06'  
2017-Dec-04 10:30N 46°55' W 124°06'1 0.1
2017-Dec-04 04:54N 46°55' W 124°07'0 0.2
2017-Dec-04 04:23N 46°55' W 124°07'1 0.1
2017-Dec-03 22:04N 46°55' W 124°06'0 2.0
2017-Dec-03 22:00N 46°55' W 124°06'1 1.5
2017-Dec-03 21:25N 46°55' W 124°08'1 1.3
2017-Dec-03 21:00N 46°55' W 124°07'1 0.1
2017-Dec-03 12:19N 46°55' W 124°05'1 4.0
2017-Dec-03 12:00N 46°55' W 124°07'1 0.2
2017-Dec-03 07:59N 46°55' W 124°06'1 1.2
2017-Dec-03 07:30N 46°55' W 124°07'1 0.1
2017-Dec-03 01:20N 46°55' W 124°05'1 3.5
2017-Dec-03 01:00N 46°55' W 124°07'  
Track history (hours):
 
Tides and Currents Weather Stations Pressure Air Temp Water Temp Dewpoint Dewpoint Depression Visibility Wind Speed Wind Dir Waves Ship Positions

Rachele Brusco

Owner: Brusco Tug & Barge, Inc., Longview, WA. More information available from US FCC via Universal Licensing System and Coast Guard Vessel Documentation Center.

Last reported at 2017-Dec-13 00:25 UTC. Time now 2017-Dec-16 09:12 UTC.
Position N 46°56' W 124°01'.

Length 29 m; draft 4.5 m.

Type: Towing. MMSI: 367002210.

Date/timePositionNaut miles runAvg speedWind from/ knotsBaromVisibWave heightAir tempDewpointWater temp
2017-Dec-13 00:25N 46°56' W 124°01'5 0.3
2017-Dec-12 07:50N 46°55' W 124°08'1 0.1
2017-Dec-11 20:18N 46°55' W 124°06'1 2.3
2017-Dec-11 20:00N 46°55' W 124°07'1 0.1
2017-Dec-11 13:20N 46°55' W 124°06'0 1.2
2017-Dec-11 12:59N 46°55' W 124°06'0 0.1
2017-Dec-11 08:12N 46°55' W 124°06'0 0.0
2017-Dec-11 04:52N 46°55' W 124°06'2 3.7
2017-Dec-11 04:27N 46°55' W 124°08'1 0.2
2017-Dec-10 22:30N 46°55' W 124°06'1 0.2
2017-Dec-10 14:18N 46°55' W 124°04'1 3.6
2017-Dec-10 14:00N 46°55' W 124°06'0 0.7
2017-Dec-10 13:22N 46°55' W 124°06'3 1.0
2017-Dec-10 10:06N 46°56' W 124°02'0 3.5
2017-Dec-10 10:00N 46°56' W 124°02'1 0.6
2017-Dec-10 09:02N 46°55' W 124°03'1 3.1
2017-Dec-10 08:44N 46°55' W 124°04'1 3.4
2017-Dec-10 08:29N 46°55' W 124°05'1 3.0
2017-Dec-10 08:01N 46°55' W 124°07'4 0.6
2017-Dec-10 01:22N 46°56' W 124°02'3 5.9
2017-Dec-10 00:52N 46°55' W 124°06'1 3.7
2017-Dec-10 00:30N 46°55' W 124°08'2 0.2
2017-Dec-09 17:54N 46°55' W 124°05'1 3.3
2017-Dec-09 17:28N 46°55' W 124°08'5 2.3
2017-Dec-09 15:20N 46°56' W 124°01'0 0.1
2017-Dec-09 14:11N 46°56' W 124°00'4 1.1
2017-Dec-09 10:45N 46°55' W 124°06'1 5.9
2017-Dec-09 10:30N 46°55' W 124°08'0 0.3
2017-Dec-09 10:00N 46°55' W 124°08'1 2.9
2017-Dec-09 09:30N 46°55' W 124°06'0 0.1
2017-Dec-09 05:34N 46°55' W 124°05'0 3.9
2017-Dec-09 05:30N 46°55' W 124°06'2 3.0
2017-Dec-09 05:00N 46°55' W 124°08'2 0.3
2017-Dec-08 22:57N 46°55' W 124°06'0 1.0
2017-Dec-08 22:26N 46°55' W 124°06'1 0.1
2017-Dec-08 17:09N 46°55' W 124°05'1 5.1
2017-Dec-08 17:00N 46°55' W 124°06'1 0.1
2017-Dec-08 10:28N 46°55' W 124°05'1 1.6
2017-Dec-08 10:00N 46°55' W 124°07'4 1.0
2017-Dec-08 06:10N 46°56' W 124°01'2 5.9
2017-Dec-08 05:48N 46°55' W 124°04'2 5.3
2017-Dec-08 05:30N 46°55' W 124°06'1 0.1
2017-Dec-07 22:38N 46°55' W 124°06'1 6.7
2017-Dec-07 22:30N 46°55' W 124°07'1 0.2
2017-Dec-07 16:56N 46°55' W 124°05'1 1.6
2017-Dec-07 16:30N 46°55' W 124°06'1 0.0
2017-Dec-07 05:00N 46°55' W 124°06'  
2017-Dec-04 10:30N 46°55' W 124°06'1 0.1
2017-Dec-04 04:54N 46°55' W 124°07'0 0.2
2017-Dec-04 04:23N 46°55' W 124°07'1 0.1
2017-Dec-03 22:04N 46°55' W 124°06'0 2.0
2017-Dec-03 22:00N 46°55' W 124°06'1 1.5
2017-Dec-03 21:25N 46°55' W 124°08'1 1.3
2017-Dec-03 21:00N 46°55' W 124°07'1 0.1
2017-Dec-03 12:19N 46°55' W 124°05'1 4.0
2017-Dec-03 12:00N 46°55' W 124°07'1 0.2
2017-Dec-03 07:59N 46°55' W 124°06'1 1.2
2017-Dec-03 07:30N 46°55' W 124°07'1 0.1
2017-Dec-03 01:20N 46°55' W 124°05'1 3.5
2017-Dec-03 01:00N 46°55' W 124°07'  

Dump ship's entire track history